sensor_id;sensor_type;location;lat;lon;timestamp;temperature;humidity
10964;DHT22;5534;48.784;9.190;2022-07-15T00:02:09;23.40;78.10
10964;DHT22;5534;48.784;9.190;2022-07-15T00:04:36;23.50;78.70
10964;DHT22;5534;48.784;9.190;2022-07-15T00:07:02;23.40;78.50
10964;DHT22;5534;48.784;9.190;2022-07-15T00:09:29;23.60;78.10
10964;DHT22;5534;48.784;9.190;2022-07-15T00:12:13;23.60;78.00
10964;DHT22;5534;48.784;9.190;2022-07-15T00:14:39;23.40;78.40
10964;DHT22;5534;48.784;9.190;2022-07-15T00:17:06;23.40;78.70
10964;DHT22;5534;48.784;9.190;2022-07-15T00:19:34;23.50;78.70
10964;DHT22;5534;48.784;9.190;2022-07-15T00:22:00;23.50;78.40
10964;DHT22;5534;48.784;9.190;2022-07-15T00:24:27;23.50;78.60
10964;DHT22;5534;48.784;9.190;2022-07-15T00:26:53;23.40;79.20
10964;DHT22;5534;48.784;9.190;2022-07-15T00:29:19;23.40;78.90
10964;DHT22;5534;48.784;9.190;2022-07-15T00:31:44;23.50;78.90
10964;DHT22;5534;48.784;9.190;2022-07-15T00:34:10;23.50;78.80
10964;DHT22;5534;48.784;9.190;2022-07-15T00:36:36;23.50;78.80
10964;DHT22;5534;48.784;9.190;2022-07-15T00:39:02;23.40;78.80
10964;DHT22;5534;48.784;9.190;2022-07-15T00:41:36;23.40;78.70
10964;DHT22;5534;48.784;9.190;2022-07-15T00:44:02;23.20;79.40
10964;DHT22;5534;48.784;9.190;2022-07-15T00:46:28;23.10;79.60
10964;DHT22;5534;48.784;9.190;2022-07-15T00:48:54;23.10;80.00
10964;DHT22;5534;48.784;9.190;2022-07-15T00:51:19;23.00;80.70
10964;DHT22;5534;48.784;9.190;2022-07-15T00:53:46;23.00;80.80
10964;DHT22;5534;48.784;9.190;2022-07-15T00:56:14;22.90;81.50
10964;DHT22;5534;48.784;9.190;2022-07-15T00:58:43;23.00;81.50
10964;DHT22;5534;48.784;9.190;2022-07-15T01:01:11;22.90;81.70
10964;DHT22;5534;48.784;9.190;2022-07-15T01:03:37;22.90;82.10
10964;DHT22;5534;48.784;9.190;2022-07-15T01:06:03;22.90;82.50
10964;DHT22;5534;48.784;9.190;2022-07-15T01:08:29;23.00;81.90
10964;DHT22;5534;48.784;9.190;2022-07-15T01:10:55;22.90;81.50
10964;DHT22;5534;48.784;9.190;2022-07-15T01:13:21;22.90;82.00
10964;DHT22;5534;48.784;9.190;2022-07-15T01:15:48;22.60;82.90
10964;DHT22;5534;48.784;9.190;2022-07-15T01:18:15;22.50;82.80
10964;DHT22;5534;48.784;9.190;2022-07-15T01:20:41;22.40;84.10
10964;DHT22;5534;48.784;9.190;2022-07-15T01:23:07;22.60;83.40
10964;DHT22;5534;48.784;9.190;2022-07-15T01:25:33;22.70;82.80
10964;DHT22;5534;48.784;9.190;2022-07-15T01:27:59;22.60;83.40
10964;DHT22;5534;48.784;9.190;2022-07-15T01:30:25;22.70;83.00
10964;DHT22;5534;48.784;9.190;2022-07-15T01:32:52;22.70;83.30
10964;DHT22;5534;48.784;9.190;2022-07-15T01:35:18;22.80;82.90
10964;DHT22;5534;48.784;9.190;2022-07-15T01:37:44;22.80;83.10
10964;DHT22;5534;48.784;9.190;2022-07-15T01:40:11;22.60;83.60
10964;DHT22;5534;48.784;9.190;2022-07-15T01:42:37;22.60;83.90
10964;DHT22;5534;48.784;9.190;2022-07-15T01:45:05;22.70;83.30
10964;DHT22;5534;48.784;9.190;2022-07-15T01:47:31;22.60;83.70
10964;DHT22;5534;48.784;9.190;2022-07-15T01:49:58;22.50;83.80
10964;DHT22;5534;48.784;9.190;2022-07-15T01:52:24;22.40;84.80
10964;DHT22;5534;48.784;9.190;2022-07-15T01:54:50;22.40;85.60
10964;DHT22;5534;48.784;9.190;2022-07-15T01:57:17;22.10;85.80
10964;DHT22;5534;48.784;9.190;2022-07-15T01:59:43;22.20;85.20
10964;DHT22;5534;48.784;9.190;2022-07-15T02:02:09;22.20;85.30
10964;DHT22;5534;48.784;9.190;2022-07-15T02:04:35;21.70;86.30
10964;DHT22;5534;48.784;9.190;2022-07-15T02:07:02;21.80;86.30
10964;DHT22;5534;48.784;9.190;2022-07-15T02:09:28;21.60;87.00
10964;DHT22;5534;48.784;9.190;2022-07-15T02:11:54;21.70;87.00
10964;DHT22;5534;48.784;9.190;2022-07-15T02:14:20;21.80;86.70
10964;DHT22;5534;48.784;9.190;2022-07-15T02:16:46;21.90;86.40
10964;DHT22;5534;48.784;9.190;2022-07-15T02:19:11;21.80;86.20
10964;DHT22;5534;48.784;9.190;2022-07-15T02:21:37;21.70;87.00
10964;DHT22;5534;48.784;9.190;2022-07-15T02:24:03;21.70;86.70
10964;DHT22;5534;48.784;9.190;2022-07-15T02:26:29;21.80;87.00
10964;DHT22;5534;48.784;9.190;2022-07-15T02:28:55;21.60;86.80
10964;DHT22;5534;48.784;9.190;2022-07-15T02:31:21;21.40;88.10
10964;DHT22;5534;48.784;9.190;2022-07-15T02:33:47;21.40;88.50
10964;DHT22;5534;48.784;9.190;2022-07-15T02:36:13;21.40;88.30
10964;DHT22;5534;48.784;9.190;2022-07-15T02:38:39;21.50;87.70
10964;DHT22;5534;48.784;9.190;2022-07-15T02:41:06;21.60;87.90
10964;DHT22;5534;48.784;9.190;2022-07-15T02:43:32;21.70;87.90
10964;DHT22;5534;48.784;9.190;2022-07-15T02:45:58;21.60;87.80
10964;DHT22;5534;48.784;9.190;2022-07-15T02:48:24;21.60;88.10
10964;DHT22;5534;48.784;9.190;2022-07-15T02:50:49;21.60;87.80
10964;DHT22;5534;48.784;9.190;2022-07-15T02:53:15;21.60;88.40
10964;DHT22;5534;48.784;9.190;2022-07-15T02:55:42;21.60;88.90
10964;DHT22;5534;48.784;9.190;2022-07-15T02:58:07;21.50;88.90
10964;DHT22;5534;48.784;9.190;2022-07-15T03:00:33;21.40;89.00
10964;DHT22;5534;48.784;9.190;2022-07-15T03:02:59;21.50;89.00
10964;DHT22;5534;48.784;9.190;2022-07-15T03:05:25;21.50;88.80
10964;DHT22;5534;48.784;9.190;2022-07-15T03:07:51;21.50;89.10
10964;DHT22;5534;48.784;9.190;2022-07-15T03:10:17;21.50;88.90
10964;DHT22;5534;48.784;9.190;2022-07-15T03:12:43;21.40;89.20
10964;DHT22;5534;48.784;9.190;2022-07-15T03:15:09;21.50;88.90
10964;DHT22;5534;48.784;9.190;2022-07-15T03:17:37;21.50;88.90
10964;DHT22;5534;48.784;9.190;2022-07-15T03:20:06;21.40;88.70
10964;DHT22;5534;48.784;9.190;2022-07-15T03:22:32;21.40;89.10
10964;DHT22;5534;48.784;9.190;2022-07-15T03:24:58;21.40;89.30
10964;DHT22;5534;48.784;9.190;2022-07-15T03:27:25;21.50;89.20
10964;DHT22;5534;48.784;9.190;2022-07-15T03:29:51;21.40;89.20
10964;DHT22;5534;48.784;9.190;2022-07-15T03:32:18;20.50;90.30
10964;DHT22;5534;48.784;9.190;2022-07-15T03:34:47;20.00;91.10
10964;DHT22;5534;48.784;9.190;2022-07-15T03:37:14;20.30;91.40
10964;DHT22;5534;48.784;9.190;2022-07-15T03:39:40;20.50;90.90
10964;DHT22;5534;48.784;9.190;2022-07-15T03:42:06;20.50;90.70
10964;DHT22;5534;48.784;9.190;2022-07-15T03:44:32;20.50;91.10
10964;DHT22;5534;48.784;9.190;2022-07-15T03:46:57;20.50;91.00
10964;DHT22;5534;48.784;9.190;2022-07-15T03:49:23;20.30;91.50
10964;DHT22;5534;48.784;9.190;2022-07-15T03:51:49;20.40;91.00
10964;DHT22;5534;48.784;9.190;2022-07-15T03:54:15;19.80;92.00
10964;DHT22;5534;48.784;9.190;2022-07-15T03:56:40;19.60;92.90
10964;DHT22;5534;48.784;9.190;2022-07-15T03:59:06;19.80;93.10
10964;DHT22;5534;48.784;9.190;2022-07-15T04:01:32;19.80;92.90
10964;DHT22;5534;48.784;9.190;2022-07-15T04:03:58;19.60;93.60
10964;DHT22;5534;48.784;9.190;2022-07-15T04:06:25;19.90;93.30
10964;DHT22;5534;48.784;9.190;2022-07-15T04:08:51;20.30;92.90
10964;DHT22;5534;48.784;9.190;2022-07-15T04:11:17;20.60;92.40
10964;DHT22;5534;48.784;9.190;2022-07-15T04:13:43;20.80;92.20
10964;DHT22;5534;48.784;9.190;2022-07-15T04:16:10;21.00;91.80
10964;DHT22;5534;48.784;9.190;2022-07-15T04:18:37;20.90;92.20
10964;DHT22;5534;48.784;9.190;2022-07-15T04:21:03;20.90;92.40
10964;DHT22;5534;48.784;9.190;2022-07-15T04:23:29;21.00;92.00
10964;DHT22;5534;48.784;9.190;2022-07-15T04:25:55;21.00;92.30
10964;DHT22;5534;48.784;9.190;2022-07-15T04:28:22;21.10;92.00
10964;DHT22;5534;48.784;9.190;2022-07-15T04:30:48;21.20;92.40
10964;DHT22;5534;48.784;9.190;2022-07-15T04:33:15;21.10;92.40
10964;DHT22;5534;48.784;9.190;2022-07-15T04:35:41;21.20;92.30
10964;DHT22;5534;48.784;9.190;2022-07-15T04:38:07;21.20;92.20
10964;DHT22;5534;48.784;9.190;2022-07-15T04:40:33;21.20;92.40
10964;DHT22;5534;48.784;9.190;2022-07-15T04:42:59;21.10;92.20
10964;DHT22;5534;48.784;9.190;2022-07-15T04:45:26;21.00;92.50
10964;DHT22;5534;48.784;9.190;2022-07-15T04:47:52;21.00;92.30
10964;DHT22;5534;48.784;9.190;2022-07-15T04:50:18;21.00;92.30
10964;DHT22;5534;48.784;9.190;2022-07-15T04:53:03;21.10;92.40
10964;DHT22;5534;48.784;9.190;2022-07-15T04:55:30;21.20;93.00
10964;DHT22;5534;48.784;9.190;2022-07-15T04:57:56;21.30;92.80
10964;DHT22;5534;48.784;9.190;2022-07-15T05:00:22;21.20;92.90
10964;DHT22;5534;48.784;9.190;2022-07-15T05:02:48;21.10;93.10
10964;DHT22;5534;48.784;9.190;2022-07-15T05:05:14;20.80;93.80
10964;DHT22;5534;48.784;9.190;2022-07-15T05:07:39;20.90;93.80
10964;DHT22;5534;48.784;9.190;2022-07-15T05:10:06;21.00;93.40
10964;DHT22;5534;48.784;9.190;2022-07-15T05:12:32;21.10;93.20
10964;DHT22;5534;48.784;9.190;2022-07-15T05:14:58;21.10;93.00
10964;DHT22;5534;48.784;9.190;2022-07-15T05:17:24;21.10;92.90
10964;DHT22;5534;48.784;9.190;2022-07-15T05:19:51;21.00;93.20
10964;DHT22;5534;48.784;9.190;2022-07-15T05:22:18;21.10;93.30
10964;DHT22;5534;48.784;9.190;2022-07-15T05:24:45;21.30;92.60
10964;DHT22;5534;48.784;9.190;2022-07-15T05:27:11;21.20;92.30
10964;DHT22;5534;48.784;9.190;2022-07-15T05:29:38;21.10;92.40
10964;DHT22;5534;48.784;9.190;2022-07-15T05:32:04;21.10;92.20
10964;DHT22;5534;48.784;9.190;2022-07-15T05:34:30;21.00;92.00
10964;DHT22;5534;48.784;9.190;2022-07-15T05:36:56;21.00;92.00
10964;DHT22;5534;48.784;9.190;2022-07-15T05:39:22;21.00;92.00
10964;DHT22;5534;48.784;9.190;2022-07-15T05:41:49;20.90;92.20
10964;DHT22;5534;48.784;9.190;2022-07-15T05:44:15;21.00;92.40
10964;DHT22;5534;48.784;9.190;2022-07-15T05:46:41;21.00;92.70
10964;DHT22;5534;48.784;9.190;2022-07-15T05:49:06;21.10;92.10
10964;DHT22;5534;48.784;9.190;2022-07-15T05:51:32;21.10;91.80
10964;DHT22;5534;48.784;9.190;2022-07-15T05:53:59;20.60;92.50
10964;DHT22;5534;48.784;9.190;2022-07-15T05:56:25;20.70;92.60
10964;DHT22;5534;48.784;9.190;2022-07-15T05:58:51;21.10;92.20
10964;DHT22;5534;48.784;9.190;2022-07-15T06:01:17;21.20;91.80
10964;DHT22;5534;48.784;9.190;2022-07-15T06:03:43;21.20;91.60
10964;DHT22;5534;48.784;9.190;2022-07-15T06:06:09;21.30;91.50
10964;DHT22;5534;48.784;9.190;2022-07-15T06:08:34;21.20;91.30
10964;DHT22;5534;48.784;9.190;2022-07-15T06:11:01;21.20;91.10
10964;DHT22;5534;48.784;9.190;2022-07-15T06:13:27;21.20;91.60
10964;DHT22;5534;48.784;9.190;2022-07-15T06:15:53;21.10;91.90
10964;DHT22;5534;48.784;9.190;2022-07-15T06:18:19;21.30;91.20
10964;DHT22;5534;48.784;9.190;2022-07-15T06:20:45;21.40;91.00
10964;DHT22;5534;48.784;9.190;2022-07-15T06:23:11;21.60;91.20
10964;DHT22;5534;48.784;9.190;2022-07-15T06:25:36;22.20;90.30
10964;DHT22;5534;48.784;9.190;2022-07-15T06:28:03;22.80;88.60
10964;DHT22;5534;48.784;9.190;2022-07-15T06:30:29;23.30;87.60
10964;DHT22;5534;48.784;9.190;2022-07-15T06:32:54;23.60;87.00
10964;DHT22;5534;48.784;9.190;2022-07-15T06:35:20;24.10;85.40
10964;DHT22;5534;48.784;9.190;2022-07-15T06:37:46;24.40;84.80
10964;DHT22;5534;48.784;9.190;2022-07-15T06:40:12;24.70;83.20
10964;DHT22;5534;48.784;9.190;2022-07-15T06:42:38;24.90;82.20
10964;DHT22;5534;48.784;9.190;2022-07-15T06:45:05;25.50;79.90
10964;DHT22;5534;48.784;9.190;2022-07-15T06:47:31;25.60;78.80
10964;DHT22;5534;48.784;9.190;2022-07-15T06:49:58;25.60;77.60
10964;DHT22;5534;48.784;9.190;2022-07-15T06:52:25;25.50;77.20
10964;DHT22;5534;48.784;9.190;2022-07-15T06:54:50;25.50;77.40
10964;DHT22;5534;48.784;9.190;2022-07-15T06:57:16;25.70;76.90
10964;DHT22;5534;48.784;9.190;2022-07-15T06:59:43;25.70;76.40
10964;DHT22;5534;48.784;9.190;2022-07-15T07:02:10;25.80;77.20
10964;DHT22;5534;48.784;9.190;2022-07-15T07:04:37;25.80;77.50
10964;DHT22;5534;48.784;9.190;2022-07-15T07:07:02;26.10;76.50
10964;DHT22;5534;48.784;9.190;2022-07-15T07:09:28;26.20;76.20
10964;DHT22;5534;48.784;9.190;2022-07-15T07:11:54;26.40;75.20
10964;DHT22;5534;48.784;9.190;2022-07-15T07:14:20;26.40;73.60
10964;DHT22;5534;48.784;9.190;2022-07-15T07:16:46;26.80;74.10
10964;DHT22;5534;48.784;9.190;2022-07-15T07:19:12;26.90;73.00
10964;DHT22;5534;48.784;9.190;2022-07-15T07:21:39;26.80;73.60
10964;DHT22;5534;48.784;9.190;2022-07-15T07:24:05;27.00;73.10
10964;DHT22;5534;48.784;9.190;2022-07-15T07:26:33;27.00;73.00
10964;DHT22;5534;48.784;9.190;2022-07-15T07:28:59;27.00;72.60
10964;DHT22;5534;48.784;9.190;2022-07-15T07:31:25;26.90;73.10
10964;DHT22;5534;48.784;9.190;2022-07-15T07:33:54;26.80;72.30
10964;DHT22;5534;48.784;9.190;2022-07-15T07:36:21;26.60;72.60
10964;DHT22;5534;48.784;9.190;2022-07-15T07:38:47;26.80;72.30
10964;DHT22;5534;48.784;9.190;2022-07-15T07:41:13;27.10;71.40
10964;DHT22;5534;48.784;9.190;2022-07-15T07:43:39;27.30;70.80
10964;DHT22;5534;48.784;9.190;2022-07-15T07:46:05;27.50;70.00
10964;DHT22;5534;48.784;9.190;2022-07-15T07:48:31;27.30;69.20
10964;DHT22;5534;48.784;9.190;2022-07-15T07:50:57;27.40;68.30
10964;DHT22;5534;48.784;9.190;2022-07-15T07:53:23;27.30;66.40
10964;DHT22;5534;48.784;9.190;2022-07-15T07:55:49;27.30;66.10
10964;DHT22;5534;48.784;9.190;2022-07-15T07:58:15;27.20;65.70
10964;DHT22;5534;48.784;9.190;2022-07-15T08:00:43;27.30;65.00
10964;DHT22;5534;48.784;9.190;2022-07-15T08:03:09;27.40;65.20
10964;DHT22;5534;48.784;9.190;2022-07-15T08:05:35;27.60;65.40
10964;DHT22;5534;48.784;9.190;2022-07-15T08:08:17;27.60;64.30
10964;DHT22;5534;48.784;9.190;2022-07-15T08:10:52;27.60;64.90
10964;DHT22;5534;48.784;9.190;2022-07-15T08:13:20;28.00;63.60
10964;DHT22;5534;48.784;9.190;2022-07-15T08:15:48;27.90;64.90
10964;DHT22;5534;48.784;9.190;2022-07-15T08:18:14;28.50;65.00
10964;DHT22;5534;48.784;9.190;2022-07-15T08:20:40;28.70;62.60
10964;DHT22;5534;48.784;9.190;2022-07-15T08:23:06;28.40;62.50
10964;DHT22;5534;48.784;9.190;2022-07-15T08:25:34;28.10;63.30
10964;DHT22;5534;48.784;9.190;2022-07-15T08:28:04;28.00;63.70
10964;DHT22;5534;48.784;9.190;2022-07-15T08:30:30;28.10;63.00
10964;DHT22;5534;48.784;9.190;2022-07-15T08:32:57;28.20;64.30
10964;DHT22;5534;48.784;9.190;2022-07-15T08:35:24;28.40;62.90
10964;DHT22;5534;48.784;9.190;2022-07-15T08:37:50;28.70;62.50
10964;DHT22;5534;48.784;9.190;2022-07-15T08:40:16;28.70;62.50
10964;DHT22;5534;48.784;9.190;2022-07-15T08:42:43;29.30;61.00
10964;DHT22;5534;48.784;9.190;2022-07-15T08:45:12;29.50;60.60
10964;DHT22;5534;48.784;9.190;2022-07-15T08:47:41;29.40;60.50
10964;DHT22;5534;48.784;9.190;2022-07-15T08:50:10;29.60;60.20
10964;DHT22;5534;48.784;9.190;2022-07-15T08:52:37;29.40;60.90
10964;DHT22;5534;48.784;9.190;2022-07-15T08:55:04;29.50;60.90
10964;DHT22;5534;48.784;9.190;2022-07-15T08:57:30;29.20;61.20
10964;DHT22;5534;48.784;9.190;2022-07-15T08:59:56;28.70;62.30
10964;DHT22;5534;48.784;9.190;2022-07-15T09:02:23;28.20;62.80
10964;DHT22;5534;48.784;9.190;2022-07-15T09:08:04;28.00;63.50
10964;DHT22;5534;48.784;9.190;2022-07-15T09:10:50;28.10;63.30
10964;DHT22;5534;48.784;9.190;2022-07-15T09:13:37;27.90;63.70
10964;DHT22;5534;48.784;9.190;2022-07-15T09:16:09;27.70;63.70
10964;DHT22;5534;48.784;9.190;2022-07-15T09:18:44;27.20;65.40
10964;DHT22;5534;48.784;9.190;2022-07-15T09:21:22;27.30;65.00
10964;DHT22;5534;48.784;9.190;2022-07-15T09:23:50;27.60;64.20
10964;DHT22;5534;48.784;9.190;2022-07-15T09:26:32;27.40;64.80
10964;DHT22;5534;48.784;9.190;2022-07-15T09:28:59;27.40;65.60
10964;DHT22;5534;48.784;9.190;2022-07-15T09:31:34;27.50;66.20
10964;DHT22;5534;48.784;9.190;2022-07-15T09:34:18;27.50;65.40
10964;DHT22;5534;48.784;9.190;2022-07-15T09:36:48;27.10;66.00
10964;DHT22;5534;48.784;9.190;2022-07-15T09:39:19;26.90;66.80
10964;DHT22;5534;48.784;9.190;2022-07-15T09:41:46;26.90;67.20
10964;DHT22;5534;48.784;9.190;2022-07-15T09:44:20;26.90;67.10
10964;DHT22;5534;48.784;9.190;2022-07-15T09:46:58;26.40;66.10
10964;DHT22;5534;48.784;9.190;2022-07-15T09:51:52;26.70;67.40
10964;DHT22;5534;48.784;9.190;2022-07-15T09:54:24;26.90;67.20
10964;DHT22;5534;48.784;9.190;2022-07-15T09:56:53;27.10;66.60
10964;DHT22;5534;48.784;9.190;2022-07-15T09:59:21;27.20;65.90
10964;DHT22;5534;48.784;9.190;2022-07-15T10:01:47;26.80;66.20
10964;DHT22;5534;48.784;9.190;2022-07-15T10:04:27;26.60;66.50
10964;DHT22;5534;48.784;9.190;2022-07-15T10:06:55;26.50;67.20
10964;DHT22;5534;48.784;9.190;2022-07-15T10:09:26;26.60;67.20
10964;DHT22;5534;48.784;9.190;2022-07-15T10:11:59;26.70;67.10
10964;DHT22;5534;48.784;9.190;2022-07-15T10:18:00;26.70;67.30
10964;DHT22;5534;48.784;9.190;2022-07-15T10:31:35;26.10;67.90
10964;DHT22;5534;48.784;9.190;2022-07-15T10:39:14;26.30;68.00
10964;DHT22;5534;48.784;9.190;2022-07-15T10:41:59;26.50;68.00
10964;DHT22;5534;48.784;9.190;2022-07-15T10:44:34;26.70;68.10
10964;DHT22;5534;48.784;9.190;2022-07-15T10:49:39;27.10;66.60
10964;DHT22;5534;48.784;9.190;2022-07-15T10:52:17;26.90;66.80
10964;DHT22;5534;48.784;9.190;2022-07-15T10:54:45;26.70;67.30
10964;DHT22;5534;48.784;9.190;2022-07-15T10:57:11;26.60;67.30
10964;DHT22;5534;48.784;9.190;2022-07-15T10:59:50;26.60;66.90
10964;DHT22;5534;48.784;9.190;2022-07-15T11:02:18;26.50;67.20
10964;DHT22;5534;48.784;9.190;2022-07-15T11:04:46;26.50;67.40
10964;DHT22;5534;48.784;9.190;2022-07-15T11:12:10;26.50;67.30
10964;DHT22;5534;48.784;9.190;2022-07-15T11:14:49;26.30;67.90
10964;DHT22;5534;48.784;9.190;2022-07-15T11:17:18;26.30;67.50
10964;DHT22;5534;48.784;9.190;2022-07-15T11:19:49;26.30;67.50
10964;DHT22;5534;48.784;9.190;2022-07-15T11:22:17;26.30;68.10
10964;DHT22;5534;48.784;9.190;2022-07-15T11:24:43;26.20;67.70
10964;DHT22;5534;48.784;9.190;2022-07-15T11:27:09;26.30;67.70
10964;DHT22;5534;48.784;9.190;2022-07-15T11:29:47;26.30;68.10
10964;DHT22;5534;48.784;9.190;2022-07-15T11:32:14;26.30;67.90
10964;DHT22;5534;48.784;9.190;2022-07-15T11:34:49;26.30;68.10
10964;DHT22;5534;48.784;9.190;2022-07-15T11:37:16;26.20;68.30
10964;DHT22;5534;48.784;9.190;2022-07-15T11:39:50;26.30;68.10
10964;DHT22;5534;48.784;9.190;2022-07-15T11:42:34;26.40;68.70
10964;DHT22;5534;48.784;9.190;2022-07-15T11:45:38;26.40;68.50
10964;DHT22;5534;48.784;9.190;2022-07-15T11:48:05;26.20;68.80
10964;DHT22;5534;48.784;9.190;2022-07-15T11:50:37;26.40;68.60
10964;DHT22;5534;48.784;9.190;2022-07-15T11:53:14;26.50;69.30
10964;DHT22;5534;48.784;9.190;2022-07-15T11:56:08;26.70;68.40
10964;DHT22;5534;48.784;9.190;2022-07-15T11:58:40;26.60;68.70
10964;DHT22;5534;48.784;9.190;2022-07-15T12:01:11;26.80;68.30
10964;DHT22;5534;48.784;9.190;2022-07-15T12:03:48;26.80;68.70
10964;DHT22;5534;48.784;9.190;2022-07-15T12:08:55;26.70;68.00
10964;DHT22;5534;48.784;9.190;2022-07-15T12:11:23;27.00;68.60
10964;DHT22;5534;48.784;9.190;2022-07-15T12:13:55;27.30;67.90
10964;DHT22;5534;48.784;9.190;2022-07-15T12:16:24;27.30;67.80
10964;DHT22;5534;48.784;9.190;2022-07-15T12:18:56;27.50;68.40
10964;DHT22;5534;48.784;9.190;2022-07-15T12:21:24;27.50;67.20
10964;DHT22;5534;48.784;9.190;2022-07-15T12:26:26;27.20;66.70
10964;DHT22;5534;48.784;9.190;2022-07-15T12:28:57;27.10;67.50
10964;DHT22;5534;48.784;9.190;2022-07-15T12:31:28;27.20;67.90
10964;DHT22;5534;48.784;9.190;2022-07-15T12:33:55;27.40;67.40
10964;DHT22;5534;48.784;9.190;2022-07-15T12:36:28;27.40;66.90
10964;DHT22;5534;48.784;9.190;2022-07-15T12:39:04;27.30;67.10
10964;DHT22;5534;48.784;9.190;2022-07-15T12:41:31;27.30;67.60
10964;DHT22;5534;48.784;9.190;2022-07-15T12:43:58;27.50;67.40
10964;DHT22;5534;48.784;9.190;2022-07-15T12:52:24;27.30;67.30
10964;DHT22;5534;48.784;9.190;2022-07-15T12:54:53;27.20;67.60
10964;DHT22;5534;48.784;9.190;2022-07-15T12:57:21;27.20;68.30
10964;DHT22;5534;48.784;9.190;2022-07-15T12:59:58;27.20;67.70
10964;DHT22;5534;48.784;9.190;2022-07-15T13:02:25;27.10;67.70
10964;DHT22;5534;48.784;9.190;2022-07-15T13:04:52;27.20;67.70
10964;DHT22;5534;48.784;9.190;2022-07-15T13:07:18;27.00;67.90
10964;DHT22;5534;48.784;9.190;2022-07-15T13:09:44;26.90;68.30
10964;DHT22;5534;48.784;9.190;2022-07-15T13:12:12;27.00;68.30
10964;DHT22;5534;48.784;9.190;2022-07-15T13:14:39;27.10;68.30
10964;DHT22;5534;48.784;9.190;2022-07-15T13:17:06;27.10;67.90
10964;DHT22;5534;48.784;9.190;2022-07-15T13:19:32;27.00;68.10
10964;DHT22;5534;48.784;9.190;2022-07-15T13:21:59;26.90;68.20
10964;DHT22;5534;48.784;9.190;2022-07-15T13:24:25;26.80;68.70
10964;DHT22;5534;48.784;9.190;2022-07-15T13:26:51;26.80;68.40
10964;DHT22;5534;48.784;9.190;2022-07-15T13:29:17;26.80;69.00
10964;DHT22;5534;48.784;9.190;2022-07-15T13:31:45;26.90;68.80
10964;DHT22;5534;48.784;9.190;2022-07-15T13:34:11;26.80;68.60
10964;DHT22;5534;48.784;9.190;2022-07-15T13:36:37;26.70;69.30
10964;DHT22;5534;48.784;9.190;2022-07-15T13:39:06;26.80;68.70
10964;DHT22;5534;48.784;9.190;2022-07-15T13:41:33;26.80;68.30
10964;DHT22;5534;48.784;9.190;2022-07-15T13:43:59;26.80;68.50
10964;DHT22;5534;48.784;9.190;2022-07-15T13:46:25;26.80;68.30
10964;DHT22;5534;48.784;9.190;2022-07-15T13:48:50;26.70;68.60
10964;DHT22;5534;48.784;9.190;2022-07-15T13:51:16;26.70;68.70
10964;DHT22;5534;48.784;9.190;2022-07-15T13:53:49;26.70;69.00
10964;DHT22;5534;48.784;9.190;2022-07-15T13:56:15;26.70;68.60
10964;DHT22;5534;48.784;9.190;2022-07-15T13:58:43;26.70;68.60
10964;DHT22;5534;48.784;9.190;2022-07-15T14:01:09;26.70;68.50
10964;DHT22;5534;48.784;9.190;2022-07-15T14:03:38;26.60;68.60
10964;DHT22;5534;48.784;9.190;2022-07-15T14:06:04;26.50;68.50
10964;DHT22;5534;48.784;9.190;2022-07-15T14:08:30;26.40;68.80
10964;DHT22;5534;48.784;9.190;2022-07-15T14:10:56;26.50;68.90
10964;DHT22;5534;48.784;9.190;2022-07-15T14:13:22;26.60;68.50
10964;DHT22;5534;48.784;9.190;2022-07-15T14:15:51;26.70;68.40
10964;DHT22;5534;48.784;9.190;2022-07-15T14:18:17;26.70;68.20
10964;DHT22;5534;48.784;9.190;2022-07-15T14:20:43;26.70;68.60
10964;DHT22;5534;48.784;9.190;2022-07-15T14:23:12;26.80;68.40
10964;DHT22;5534;48.784;9.190;2022-07-15T14:25:38;26.80;68.30
10964;DHT22;5534;48.784;9.190;2022-07-15T14:28:04;27.00;68.60
10964;DHT22;5534;48.784;9.190;2022-07-15T14:30:30;27.10;68.10
10964;DHT22;5534;48.784;9.190;2022-07-15T14:32:56;27.20;67.90
10964;DHT22;5534;48.784;9.190;2022-07-15T14:35:22;27.30;68.00
10964;DHT22;5534;48.784;9.190;2022-07-15T14:37:48;27.40;68.60
10964;DHT22;5534;48.784;9.190;2022-07-15T14:40:14;27.30;67.40
10964;DHT22;5534;48.784;9.190;2022-07-15T14:42:40;27.10;67.80
10964;DHT22;5534;48.784;9.190;2022-07-15T14:45:07;27.00;67.90
10964;DHT22;5534;48.784;9.190;2022-07-15T14:47:33;26.90;68.00
10964;DHT22;5534;48.784;9.190;2022-07-15T14:49:59;26.80;68.10
10964;DHT22;5534;48.784;9.190;2022-07-15T14:52:24;26.80;68.40
10964;DHT22;5534;48.784;9.190;2022-07-15T14:54:50;26.90;68.40
10964;DHT22;5534;48.784;9.190;2022-07-15T14:57:16;26.90;68.40
10964;DHT22;5534;48.784;9.190;2022-07-15T14:59:43;27.00;68.20
10964;DHT22;5534;48.784;9.190;2022-07-15T15:02:09;26.90;68.00
10964;DHT22;5534;48.784;9.190;2022-07-15T15:04:35;26.90;67.80
10964;DHT22;5534;48.784;9.190;2022-07-15T15:07:02;26.90;68.30
10964;DHT22;5534;48.784;9.190;2022-07-15T15:09:28;26.90;67.70
10964;DHT22;5534;48.784;9.190;2022-07-15T15:11:54;26.80;68.20
10964;DHT22;5534;48.784;9.190;2022-07-15T15:14:20;26.80;68.30
10964;DHT22;5534;48.784;9.190;2022-07-15T15:16:46;26.80;68.10
10964;DHT22;5534;48.784;9.190;2022-07-15T15:19:12;26.80;67.90
10964;DHT22;5534;48.784;9.190;2022-07-15T15:21:38;26.80;68.00
10964;DHT22;5534;48.784;9.190;2022-07-15T15:24:04;26.80;68.10
10964;DHT22;5534;48.784;9.190;2022-07-15T15:26:31;26.80;68.00
10964;DHT22;5534;48.784;9.190;2022-07-15T15:28:58;26.70;68.20
10964;DHT22;5534;48.784;9.190;2022-07-15T15:31:24;26.70;68.70
10964;DHT22;5534;48.784;9.190;2022-07-15T15:33:53;26.70;69.00
10964;DHT22;5534;48.784;9.190;2022-07-15T15:36:20;26.80;68.10
10964;DHT22;5534;48.784;9.190;2022-07-15T15:38:46;26.90;67.80
10964;DHT22;5534;48.784;9.190;2022-07-15T15:41:12;26.80;67.40
10964;DHT22;5534;48.784;9.190;2022-07-15T15:43:38;26.70;67.40
10964;DHT22;5534;48.784;9.190;2022-07-15T15:46:04;26.70;67.50
10964;DHT22;5534;48.784;9.190;2022-07-15T15:48:31;26.60;67.40
10964;DHT22;5534;48.784;9.190;2022-07-15T15:50:58;26.50;67.20
10964;DHT22;5534;48.784;9.190;2022-07-15T15:53:24;26.40;67.70
10964;DHT22;5534;48.784;9.190;2022-07-15T15:55:49;26.40;67.30
10964;DHT22;5534;48.784;9.190;2022-07-15T15:58:15;26.30;67.10
10964;DHT22;5534;48.784;9.190;2022-07-15T16:00:41;26.30;67.40
10964;DHT22;5534;48.784;9.190;2022-07-15T16:03:07;26.40;67.20
10964;DHT22;5534;48.784;9.190;2022-07-15T16:05:33;26.40;67.00
10964;DHT22;5534;48.784;9.190;2022-07-15T16:07:58;26.40;67.20
10964;DHT22;5534;48.784;9.190;2022-07-15T16:10:24;26.40;67.40
10964;DHT22;5534;48.784;9.190;2022-07-15T16:12:50;26.40;67.10
10964;DHT22;5534;48.784;9.190;2022-07-15T16:15:16;26.30;66.90
10964;DHT22;5534;48.784;9.190;2022-07-15T16:17:43;26.20;66.90
10964;DHT22;5534;48.784;9.190;2022-07-15T16:20:09;26.20;67.00
10964;DHT22;5534;48.784;9.190;2022-07-15T16:22:35;26.30;67.10
10964;DHT22;5534;48.784;9.190;2022-07-15T16:25:31;26.30;66.90
10964;DHT22;5534;48.784;9.190;2022-07-15T16:27:59;26.20;66.70
10964;DHT22;5534;48.784;9.190;2022-07-15T16:30:26;26.10;67.00
10964;DHT22;5534;48.784;9.190;2022-07-15T16:32:53;26.10;66.90